HGN weather

Torre Gan Heliport
Miguel Hidalgo, Distrito Federal, Mexico

Public forecast

Using degrees Celsius for public forecast. Weather courtesy of forecast.io.

METAR (pilot weather report)

Closest report is Licenciado Benito Juarez International Airport, 6.2 nm (11.4 km) E. Retrieved 2019/06/25 00:25 UTC (31 minutes ago):

MMMX 250025Z 12014G24KT 8SM RA BKN020CB OVC080 17/13 A3022 TEMPO 5SM TSRA RMK 8/36/ HZY CB OVHD VSBY LWR NE E

TAF (pilot weather forecast)

Closest forecast is Licenciado Benito Juarez International Airport, 6.2 nm (11.4 km) E. Retrieved 2019/06/25 00:15 UTC (41 minutes ago):

TAF COR MMMX 250008Z 2500/2606 06008KT P6SM SCT020CB BKN080 OVC220 TX23/2520Z TN15/2512Z TEMPO 2500/2504 5SM TSRA BKN020CB OVC080 FM250400 16005KT 5SM -RA BKN020 OVC080 FM250900 00000KT 5SM HZ SCT015 BKN080 FM251900 16010KT P6SM BKN020 BKN080 BKN200 TEMPO 2521/2601 5SM TSRA BKN020CB OVC080